Time;durP1;ratioP1;P1;durP2;ratioP2;P2;SDS_P1;SDS_P2;PMS_P1;PMS_P2;Temp;Humidity;BMP_temperature;BMP_pressure;BME280_temperature;BME280_humidity;BME280_pressure;Samples;Min_cycle;Max_cycle;Signal;HPM_P1;HPM_P2
2023/04/13 00:02:16;;;;;;;4.43;2.27;;;;;;;-150.27;100.00;61272.81;5073386;29;20656;-71
2023/04/13 00:04:50;;;;;;;5.67;1.87;;;;;;;-150.27;100.00;61272.81;5072042;29;20041;-71
2023/04/13 00:07:21;;;;;;;4.32;1.20;;;;;;;-150.27;100.00;61272.81;5055902;29;20049;-71
2023/04/13 00:09:52;;;;;;;4.20;1.07;;;;;;;-150.27;100.00;61272.81;5072319;29;20039;-71
2023/04/13 00:12:25;;;;;;;5.63;1.53;;;;;;;-150.27;100.00;61272.81;5072727;29;20033;-71
2023/04/13 00:14:56;;;;;;;2.90;1.10;;;;;;;-150.27;100.00;61272.81;5073374;29;20033;-70
2023/04/13 00:17:28;;;;;;;3.80;1.20;;;;;;;-150.27;100.00;61272.81;5071496;29;20040;-71
2023/04/13 00:20:00;;;;;;;6.30;1.33;;;;;;;-150.27;100.00;61272.81;5072842;29;20041;-71
2023/04/13 00:22:31;;;;;;;4.13;1.80;;;;;;;-150.27;100.00;61272.81;5072557;29;20034;-71
2023/04/13 00:25:03;;;;;;;4.47;1.37;;;;;;;-150.27;100.00;61272.81;5072484;29;20071;-71
2023/04/13 00:27:36;;;;;;;5.27;1.53;;;;;;;-150.27;100.00;61272.81;5055792;29;20037;-71
2023/04/13 00:30:09;;;;;;;8.00;2.20;;;;;;;-150.27;100.00;61272.81;5072641;29;20069;-71
2023/04/13 00:32:42;;;;;;;4.13;1.03;;;;;;;-150.27;100.00;61272.81;5071289;29;20119;-71
2023/04/13 00:35:18;;;;;;;4.70;1.47;;;;;;;-150.27;100.00;61272.81;5070766;29;20048;-71
2023/04/13 00:37:51;;;;;;;3.27;0.87;;;;;;;-150.27;100.00;61272.81;5067910;29;20485;-71
2023/04/13 00:40:23;;;;;;;4.67;1.03;;;;;;;-150.27;100.00;61272.81;5070480;29;20116;-71
2023/04/13 00:42:55;;;;;;;6.27;1.27;;;;;;;-150.27;100.00;61272.81;5071354;29;20033;-71
2023/04/13 00:45:27;;;;;;;4.67;1.10;;;;;;;-150.27;100.00;61272.81;5072573;29;20045;-71
2023/04/13 00:47:58;;;;;;;6.93;1.20;;;;;;;-150.27;100.00;61272.81;5064971;29;20622;-71
2023/04/13 00:50:32;;;;;;;5.73;1.17;;;;;;;-150.27;100.00;61272.81;5058017;29;20056;-71
2023/04/13 00:53:05;;;;;;;3.97;1.67;;;;;;;-150.27;100.00;61272.81;5072106;29;20377;-71
2023/04/13 00:55:39;;;;;;;7.13;1.33;;;;;;;-150.27;100.00;61272.81;5072713;29;20036;-71
2023/04/13 00:58:12;;;;;;;4.87;1.43;;;;;;;-150.27;100.00;61272.81;5072624;29;20044;-73
2023/04/13 01:00:43;;;;;;;4.13;1.03;;;;;;;-150.27;100.00;61272.81;5086752;29;20049;-72
2023/04/13 01:03:14;;;;;;;3.33;1.87;;;;;;;-150.27;100.00;61272.81;5074985;29;20125;-72
2023/04/13 01:06:08;;;;;;;5.57;1.10;;;;;;;-150.27;100.00;61272.81;5075473;29;20049;-73
2023/04/13 01:08:48;;;;;;;5.30;1.00;;;;;;;-150.27;100.00;61272.81;5060986;29;20041;-72
2023/04/13 01:11:50;;;;;;;5.13;1.50;;;;;;;-150.27;100.00;61272.81;5077278;23;20053;-75
2023/04/13 01:14:30;;;;;;;3.30;1.27;;;;;;;-150.27;100.00;61272.81;5057039;29;20029;-75
2023/04/13 01:17:09;;;;;;;3.03;1.17;;;;;;;-150.27;100.00;61272.81;5057495;29;20125;-75
2023/04/13 01:20:00;;;;;;;4.80;1.50;;;;;;;-150.27;100.00;61272.81;5056594;29;20035;-75
2023/04/13 01:22:34;;;;;;;4.03;1.10;;;;;;;-150.27;100.00;61272.81;5041538;29;20025;-76
2023/04/13 01:25:49;;;;;;;5.22;1.65;;;;;;;-150.27;100.00;61272.81;5056744;29;20387;-76
2023/04/13 01:28:21;;;;;;;5.80;1.50;;;;;;;-150.27;100.00;61272.81;5038394;29;20454;-76
2023/04/13 01:30:54;;;;;;;3.30;0.80;;;;;;;-150.27;100.00;61272.81;5056695;29;20038;-76
2023/04/13 01:33:29;;;;;;;5.47;1.30;;;;;;;-150.27;100.00;61272.81;5055171;29;20057;-76
2023/04/13 01:36:01;;;;;;;5.53;1.63;;;;;;;-150.27;100.00;61272.81;5056642;29;20044;-76
2023/04/13 01:38:33;;;;;;;4.60;1.33;;;;;;;-150.27;100.00;61272.81;5053032;29;20116;-76
2023/04/13 01:41:04;;;;;;;6.47;1.30;;;;;;;-150.27;100.00;61272.81;5052175;29;20122;-76
2023/04/13 01:43:36;;;;;;;6.47;1.53;;;;;;;-150.27;100.00;61272.81;5055899;29;20479;-75
2023/04/13 01:46:14;;;;;;;4.33;1.40;;;;;;;-150.27;100.00;61272.81;5056047;29;20029;-75
2023/04/13 01:48:54;;;;;;;7.57;1.70;;;;;;;-150.27;100.00;61272.81;5038938;29;20029;-75
2023/04/13 01:51:30;;;;;;;3.93;1.70;;;;;;;-150.27;100.00;61272.81;5055814;29;20850;-75
2023/04/13 01:54:11;;;;;;;7.57;2.27;;;;;;;-150.27;100.00;61272.81;5056725;29;20034;-75
2023/04/13 01:56:43;;;;;;;6.20;1.60;;;;;;;-150.27;100.00;61272.81;5055974;29;20029;-75
2023/04/13 01:59:18;;;;;;;4.30;1.20;;;;;;;-150.27;100.00;61272.81;5049627;29;20097;-75
2023/04/13 02:01:50;;;;;;;6.00;1.50;;;;;;;-150.27;100.00;61272.81;5054271;29;20025;-75
2023/04/13 02:04:22;;;;;;;6.63;1.40;;;;;;;-150.27;100.00;61272.81;5055160;29;20032;-75
2023/04/13 02:06:53;;;;;;;6.47;1.33;;;;;;;-150.27;100.00;61272.81;5056790;29;20518;-75
2023/04/13 02:09:27;;;;;;;8.67;2.03;;;;;;;-150.27;100.00;61272.81;5055769;29;20037;-75
2023/04/13 02:11:58;;;;;;;5.40;2.03;;;;;;;-150.27;100.00;61272.81;5055866;29;20057;-75
2023/04/13 02:14:29;;;;;;;6.47;1.53;;;;;;;-150.27;100.00;61272.81;5056137;29;20037;-74
2023/04/13 02:17:01;;;;;;;5.20;1.07;;;;;;;-150.27;100.00;61272.81;5054204;29;20065;-74
2023/04/13 02:19:33;;;;;;;4.00;1.10;;;;;;;-150.27;100.00;61272.81;5055427;29;20057;-75
2023/04/13 02:22:04;;;;;;;5.27;1.53;;;;;;;-150.27;100.00;61272.81;5037816;29;20415;-75
2023/04/13 02:24:37;;;;;;;8.87;1.60;;;;;;;-150.27;100.00;61272.81;5052997;29;20128;-75
2023/04/13 02:27:09;;;;;;;5.80;1.23;;;;;;;-150.27;100.00;61272.81;5055604;29;20045;-75
2023/04/13 02:29:41;;;;;;;7.90;1.60;;;;;;;-150.27;100.00;61272.81;5055242;29;20029;-75
2023/04/13 02:32:13;;;;;;;9.37;2.20;;;;;;;-150.27;100.00;61272.81;5036892;29;20033;-76
2023/04/13 02:34:45;;;;;;;6.63;1.43;;;;;;;-150.27;100.00;61272.81;5023201;29;20052;-76
2023/04/13 02:37:16;;;;;;;5.03;1.60;;;;;;;-150.27;100.00;61272.81;5020080;29;20108;-75
2023/04/13 02:39:47;;;;;;;7.10;2.03;;;;;;;-150.27;100.00;61272.81;5036489;29;20098;-75
2023/04/13 02:42:19;;;;;;;4.10;1.57;;;;;;;-150.27;100.00;61272.81;5038147;29;20034;-76
2023/04/13 02:44:50;;;;;;;6.33;1.47;;;;;;;-150.27;100.00;61272.81;5055741;29;20048;-76
2023/04/13 02:47:21;;;;;;;5.77;1.83;;;;;;;-150.27;100.00;61272.81;5036852;29;20441;-76
2023/04/13 02:49:53;;;;;;;7.00;1.53;;;;;;;-150.27;100.00;61272.81;5050994;29;20132;-76
2023/04/13 02:52:24;;;;;;;7.40;3.20;;;;;;;-150.27;100.00;61272.81;5054630;29;20033;-75
2023/04/13 02:54:57;;;;;;;4.60;1.57;;;;;;;-150.27;100.00;61272.81;5054612;29;20041;-75
2023/04/13 02:57:28;;;;;;;3.30;1.43;;;;;;;-150.27;100.00;61272.81;5046756;29;20041;-75
2023/04/13 03:00:00;;;;;;;3.67;1.40;;;;;;;-150.27;100.00;61272.81;5035233;29;20029;-76
2023/04/13 03:02:32;;;;;;;6.57;2.63;;;;;;;-150.27;100.00;61272.81;5053491;29;20045;-76
2023/04/13 03:05:06;;;;;;;6.00;1.47;;;;;;;-150.27;100.00;61272.81;5054808;29;20065;-75
2023/04/13 03:07:38;;;;;;;11.63;1.90;;;;;;;-150.27;100.00;61272.81;5046107;29;20037;-75
2023/04/13 03:10:10;;;;;;;7.20;2.03;;;;;;;-150.27;100.00;61272.81;5035962;29;20040;-75
2023/04/13 03:12:41;;;;;;;6.80;1.57;;;;;;;-150.27;100.00;61272.81;5053954;29;20116;-74
2023/04/13 03:15:13;;;;;;;4.93;1.30;;;;;;;-150.27;100.00;61272.81;5055064;29;20029;-74
2023/04/13 03:17:45;;;;;;;5.47;1.30;;;;;;;-150.27;100.00;61272.81;5053168;29;20032;-74
2023/04/13 03:20:19;;;;;;;4.67;1.13;;;;;;;-150.27;100.00;61272.81;5042329;29;20691;-74
2023/04/13 03:22:52;;;;;;;2.40;1.10;;;;;;;-150.27;100.00;61272.81;5051689;29;20025;-74
2023/04/13 03:25:23;;;;;;;3.70;1.90;;;;;;;-150.27;100.00;61272.81;5035745;29;20068;-74
2023/04/13 03:27:55;;;;;;;8.77;2.33;;;;;;;-150.27;100.00;61272.81;5035736;29;20109;-75
2023/04/13 03:30:26;;;;;;;4.70;2.20;;;;;;;-150.27;100.00;61272.81;5020780;29;20128;-74
2023/04/13 03:32:57;;;;;;;8.57;2.00;;;;;;;-150.27;100.00;61272.81;5046665;29;20068;-75
2023/04/13 03:35:29;;;;;;;4.43;2.07;;;;;;;-150.27;100.00;61272.81;5035371;29;20034;-75
2023/04/13 03:38:00;;;;;;;7.33;2.27;;;;;;;-150.27;100.00;61272.81;5046959;29;20021;-75
2023/04/13 03:40:31;;;;;;;5.20;2.80;;;;;;;-150.27;100.00;61272.81;5049298;29;20030;-75
2023/04/13 03:43:03;;;;;;;5.73;2.10;;;;;;;-150.27;100.00;61272.81;5035006;29;20041;-75
2023/04/13 03:45:35;;;;;;;5.03;2.20;;;;;;;-150.27;100.00;61272.81;5035248;29;20072;-75
2023/04/13 03:48:06;;;;;;;6.50;3.03;;;;;;;-150.27;100.00;61272.81;5048773;29;20040;-76
2023/04/13 03:50:37;;;;;;;8.13;2.73;;;;;;;-150.27;100.00;61272.81;5020890;29;20467;-75
2023/04/13 03:53:09;;;;;;;8.40;3.40;;;;;;;-150.27;100.00;61272.81;5041018;29;20029;-75
2023/04/13 03:55:40;;;;;;;7.20;3.30;;;;;;;-150.27;100.00;61272.81;5023610;29;20038;-76
2023/04/13 03:58:12;;;;;;;8.67;3.97;;;;;;;-150.27;100.00;61272.81;5037092;29;20030;-76
2023/04/13 04:00:44;;;;;;;4.57;2.97;;;;;;;-150.27;100.00;61272.81;5053524;29;20040;-76
2023/04/13 04:03:16;;;;;;;4.03;2.90;;;;;;;-150.27;100.00;61272.81;5036555;29;20128;-76
2023/04/13 04:05:47;;;;;;;10.27;4.33;;;;;;;-150.27;100.00;61272.81;5038132;29;20037;-77
2023/04/13 04:08:24;;;;;;;8.67;3.00;;;;;;;-150.27;100.00;61272.81;5054324;29;20029;-76
2023/04/13 04:10:58;;;;;;;10.30;4.13;;;;;;;-150.27;100.00;61272.81;5030569;29;20088;-76
2023/04/13 04:13:32;;;;;;;6.22;2.90;;;;;;;-150.27;100.00;61272.81;5034618;29;20514;-74
2023/04/13 04:16:05;;;;;;;9.30;3.80;;;;;;;-150.27;100.00;61272.81;5034177;29;20093;-77
2023/04/13 04:18:38;;;;;;;7.87;3.30;;;;;;;-150.27;100.00;61272.81;5034393;29;20395;-75
2023/04/13 04:21:11;;;;;;;6.37;3.00;;;;;;;-150.27;100.00;61272.81;5034186;29;20484;-75
2023/04/13 04:23:46;;;;;;;9.53;3.90;;;;;;;-150.27;100.00;61272.81;5035621;29;20026;-76
2023/04/13 04:26:24;;;;;;;8.18;4.00;;;;;;;-150.27;100.00;61272.81;5034820;29;20500;-77
2023/04/13 04:29:06;;;;;;;8.60;3.40;;;;;;;-150.27;100.00;61272.81;5034228;29;20102;-76
2023/04/13 04:31:42;;;;;;;5.73;3.60;;;;;;;-150.27;100.00;61272.81;5033165;29;20083;-76
2023/04/13 04:34:22;;;;;;;8.30;3.23;;;;;;;-150.27;100.00;61272.81;5035428;29;20045;-77
2023/04/13 04:37:08;;;;;;;6.97;3.20;;;;;;;-150.27;100.00;61272.81;5036903;29;20065;-77
2023/04/13 04:40:24;;;;;;;7.50;3.37;;;;;;;-150.27;100.00;61272.81;5038911;29;20367;-77
2023/04/13 04:46:24;;;;;;;8.33;3.63;;;;;;;-150.27;100.00;61272.81;5038633;29;20058;-76
2023/04/13 04:48:59;;;;;;;8.33;3.80;;;;;;;-150.27;100.00;61272.81;5037996;29;20104;-76
2023/04/13 04:51:32;;;;;;;10.00;4.80;;;;;;;-150.27;100.00;61272.81;5038329;29;20082;-76
2023/04/13 04:54:04;;;;;;;9.43;4.60;;;;;;;-150.27;100.00;61272.81;5036821;29;20485;-76
2023/04/13 04:56:36;;;;;;;7.77;4.33;;;;;;;-150.27;100.00;61272.81;5036862;29;20050;-77
2023/04/13 04:59:09;;;;;;;10.00;4.07;;;;;;;-150.27;100.00;61272.81;5038110;29;20113;-76
2023/04/13 05:01:41;;;;;;;7.63;4.33;;;;;;;-150.27;100.00;61272.81;5037382;29;20104;-76
2023/04/13 05:04:13;;;;;;;6.10;3.63;;;;;;;-150.27;100.00;61272.81;5038146;29;20037;-76
2023/04/13 05:06:44;;;;;;;9.80;4.83;;;;;;;-150.27;100.00;61272.81;5037733;29;20038;-76
2023/04/13 05:09:17;;;;;;;8.93;3.83;;;;;;;-150.27;100.00;61272.81;5037824;29;20038;-76
2023/04/13 05:11:49;;;;;;;7.40;4.23;;;;;;;-150.27;100.00;61272.81;5048551;29;20526;-76
2023/04/13 05:14:20;;;;;;;6.40;4.53;;;;;;;-150.27;100.00;61272.81;5056692;29;20029;-76
2023/04/13 05:16:52;;;;;;;14.00;5.20;;;;;;;-150.27;100.00;61272.81;5056521;29;20106;-76
2023/04/13 05:19:23;;;;;;;10.73;4.03;;;;;;;-150.27;100.00;61272.81;5056800;29;20080;-76
2023/04/13 05:22:01;;;;;;;7.97;4.03;;;;;;;-150.27;100.00;61272.81;5042589;29;20089;-74
2023/04/13 05:24:44;;;;;;;10.53;4.57;;;;;;;-150.27;100.00;61272.81;5043394;29;20081;-74
2023/04/13 05:27:16;;;;;;;8.33;3.83;;;;;;;-150.27;100.00;61272.81;5039171;29;20065;-75
2023/04/13 05:29:47;;;;;;;6.87;3.70;;;;;;;-150.27;100.00;61272.81;5056582;29;20032;-75
2023/04/13 05:32:19;;;;;;;8.47;3.20;;;;;;;-150.27;100.00;61272.81;5055518;29;20558;-75
2023/04/13 05:34:50;;;;;;;9.73;2.93;;;;;;;-150.27;100.00;61272.81;5057206;29;20060;-75
2023/04/13 05:37:21;;;;;;;8.57;3.70;;;;;;;-150.27;100.00;61272.81;5057500;29;20397;-74
2023/04/13 05:39:53;;;;;;;6.53;2.73;;;;;;;-150.27;100.00;61272.81;5057078;29;20362;-74
2023/04/13 05:42:24;;;;;;;5.27;2.37;;;;;;;-150.27;100.00;61272.81;5056743;29;20037;-75
2023/04/13 05:44:55;;;;;;;8.93;2.50;;;;;;;-150.27;100.00;61272.81;5057926;29;20041;-75
2023/04/13 05:47:38;;;;;;;8.03;2.67;;;;;;;-150.27;100.00;61272.81;5050502;29;20022;-75
2023/04/13 05:50:11;;;;;;;9.20;2.57;;;;;;;-150.27;100.00;61272.81;5020953;29;20052;-75
2023/04/13 05:52:46;;;;;;;7.30;2.50;;;;;;;-150.27;100.00;61272.81;5021021;29;20041;-75
2023/04/13 05:55:40;;;;;;;8.73;2.53;;;;;;;-150.27;100.00;61272.81;5026297;29;20500;-75
2023/04/13 06:05:31;;;;;;;;;;;;;;;;;;;;;
2023/04/13 06:08:32;;;;;;;;;;;;;;;;;;;;;
2023/04/13 06:15:33;;;;;;;2.53;1.37;;;;;;;-150.27;100.00;61272.81;4976643;30;20047;-76
2023/04/13 06:21:57;;;;;;;4.43;2.23;;;;;;;-150.27;100.00;61272.81;4994781;29;20046;-77
2023/04/13 06:24:28;;;;;;;8.03;2.00;;;;;;;-150.27;100.00;61272.81;5031379;29;20045;-76
2023/04/13 06:27:00;;;;;;;7.90;2.40;;;;;;;-150.27;100.00;61272.81;5030073;29;20796;-76
2023/04/13 06:29:55;;;;;;;8.23;2.30;;;;;;;-150.27;100.00;61272.81;5017331;29;20061;-77
2023/04/13 06:32:26;;;;;;;4.95;1.85;;;;;;;-150.27;100.00;61272.81;5026065;29;20042;-77
2023/04/13 06:34:57;;;;;;;5.03;2.07;;;;;;;-150.27;100.00;61272.81;5035841;29;20490;-77
2023/04/13 06:37:29;;;;;;;5.50;1.97;;;;;;;-150.27;100.00;61272.81;5032646;29;20174;-76
2023/04/13 06:40:11;;;;;;;9.27;2.67;;;;;;;-150.27;100.00;61272.81;5035906;29;20106;-75
2023/04/13 06:42:42;;;;;;;6.33;3.03;;;;;;;-150.27;100.00;61272.81;5036442;29;20041;-76
2023/04/13 06:45:15;;;;;;;7.07;1.83;;;;;;;-150.27;100.00;61272.81;5036153;29;20034;-76
2023/04/13 06:47:49;;;;;;;4.70;2.30;;;;;;;-150.27;100.00;61272.81;5035840;29;20034;-75
2023/04/13 06:50:21;;;;;;;11.98;3.08;;;;;;;-150.27;100.00;61272.81;5034495;29;20045;-75
2023/04/13 06:52:52;;;;;;;7.33;2.30;;;;;;;-150.27;100.00;61272.81;5034678;29;20041;-75
2023/04/13 06:55:37;;;;;;;6.77;2.50;;;;;;;-150.27;100.00;61272.81;5021393;29;20048;-76
2023/04/13 07:02:02;;;;;;;7.43;2.47;;;;;;;-150.27;100.00;61272.81;5034654;29;20038;-76
2023/04/13 07:04:48;;;;;;;7.23;2.37;;;;;;;-150.27;100.00;61272.81;5032825;29;20038;-76
2023/04/13 07:07:20;;;;;;;7.13;2.50;;;;;;;-150.27;100.00;61272.81;5018260;29;20048;-76
2023/04/13 07:13:12;;;;;;;7.13;2.23;;;;;;;-150.27;100.00;61272.81;4958324;30;20055;-75
2023/04/13 07:16:00;;;;;;;9.43;2.87;;;;;;;-150.27;100.00;61272.81;5027073;29;20472;-75
2023/04/13 07:18:41;;;;;;;7.33;2.43;;;;;;;-150.27;100.00;61272.81;5034118;29;20049;-75
2023/04/13 07:21:12;;;;;;;5.67;2.60;;;;;;;-150.27;100.00;61272.81;5030416;29;20041;-73
2023/04/13 07:23:44;;;;;;;10.80;2.87;;;;;;;-150.27;100.00;61272.81;5030998;29;20030;-75
2023/04/13 07:26:17;;;;;;;6.30;2.80;;;;;;;-150.27;100.00;61272.81;5033625;29;20716;-74
2023/04/13 07:28:48;;;;;;;7.43;2.87;;;;;;;-150.27;100.00;61272.81;5048150;29;20037;-74
2023/04/13 07:31:20;;;;;;;8.53;2.63;;;;;;;-150.27;100.00;61272.81;5034415;29;20090;-74
2023/04/13 07:33:51;;;;;;;11.57;3.17;;;;;;;-150.27;100.00;61272.81;5025466;29;20057;-74
2023/04/13 07:36:23;;;;;;;7.97;3.10;;;;;;;-150.27;100.00;61272.81;5033218;29;20073;-74
2023/04/13 07:38:56;;;;;;;13.07;4.30;;;;;;;-150.27;100.00;61272.81;5036841;29;20026;-74
2023/04/13 07:41:27;;;;;;;10.07;3.00;;;;;;;-150.27;100.00;61272.81;5036838;29;20022;-75
2023/04/13 07:43:59;;;;;;;11.13;3.60;;;;;;;-150.27;100.00;61272.81;5034783;29;20816;-74
2023/04/13 07:46:31;;;;;;;8.83;3.30;;;;;;;-150.27;100.00;61272.81;5033849;29;20297;-75
2023/04/13 07:49:03;;;;;;;10.57;3.87;;;;;;;-150.27;100.00;61272.81;5027016;29;20026;-75
2023/04/13 07:51:34;;;;;;;14.87;3.47;;;;;;;-150.27;100.00;61272.81;5035175;29;20086;-74
2023/04/13 07:54:06;;;;;;;13.57;4.73;;;;;;;-150.27;100.00;61272.81;5033802;29;20030;-75
2023/04/13 07:56:45;;;;;;;11.53;3.17;;;;;;;-150.27;100.00;61272.81;5036251;29;20490;-75
2023/04/13 07:59:16;;;;;;;14.23;3.40;;;;;;;-150.27;100.00;61272.81;5034917;29;20492;-74
2023/04/13 08:02:00;;;;;;;13.07;3.63;;;;;;;-150.27;100.00;61272.81;5032814;29;20034;-74
2023/04/13 08:05:02;;;;;;;13.07;3.63;;;;;;;-150.27;100.00;61272.81;5028542;29;20081;-74
2023/04/13 08:07:33;;;;;;;14.97;4.03;;;;;;;-150.27;100.00;61272.81;5031031;29;20038;-74
2023/04/13 08:10:05;;;;;;;19.77;5.20;;;;;;;-150.27;100.00;61272.81;5033571;29;20038;-75
2023/04/13 08:12:37;;;;;;;16.00;4.37;;;;;;;-150.27;100.00;61272.81;5032509;29;20148;-74
2023/04/13 08:15:08;;;;;;;11.43;3.73;;;;;;;-150.27;100.00;61272.81;5052003;29;20041;-75
2023/04/13 08:17:40;;;;;;;12.67;3.20;;;;;;;-150.27;100.00;61272.81;5051245;29;20026;-74
2023/04/13 08:20:13;;;;;;;13.87;3.77;;;;;;;-150.27;100.00;61272.81;5051798;29;20025;-74
2023/04/13 08:22:45;;;;;;;14.83;3.90;;;;;;;-150.27;100.00;61272.81;5041121;29;20060;-74
2023/04/13 08:25:16;;;;;;;11.97;3.50;;;;;;;-150.27;100.00;61272.81;5039536;29;20509;-74
2023/04/13 08:27:49;;;;;;;17.23;3.97;;;;;;;-150.27;100.00;61272.81;5052778;29;20517;-74
2023/04/13 08:30:21;;;;;;;19.87;5.27;;;;;;;-150.27;100.00;61272.81;5052035;29;20059;-74
2023/04/13 08:32:52;;;;;;;12.97;3.33;;;;;;;-150.27;100.00;61272.81;5051655;29;20799;-75
2023/04/13 08:35:24;;;;;;;18.50;5.50;;;;;;;-150.27;100.00;61272.81;5052675;29;20124;-75
2023/04/13 08:37:55;;;;;;;13.83;3.93;;;;;;;-150.27;100.00;61272.81;5052300;29;20124;-75
2023/04/13 08:40:26;;;;;;;15.93;4.27;;;;;;;-150.27;100.00;61272.81;5052299;29;20030;-76
2023/04/13 08:42:59;;;;;;;22.23;4.67;;;;;;;-150.27;100.00;61272.81;5036089;29;20039;-75
2023/04/13 08:45:31;;;;;;;13.97;4.93;;;;;;;-150.27;100.00;61272.81;5052627;29;20037;-75
2023/04/13 08:48:02;;;;;;;11.57;3.77;;;;;;;-150.27;100.00;61272.81;5051963;29;20030;-75
2023/04/13 08:50:35;;;;;;;15.00;4.77;;;;;;;-150.27;100.00;61272.81;5052496;29;20603;-76
2023/04/13 08:53:06;;;;;;;14.20;4.90;;;;;;;-150.27;100.00;61272.81;5052230;29;20037;-74
2023/04/13 08:55:44;;;;;;;11.93;3.43;;;;;;;-150.27;100.00;61272.81;5050448;29;20036;-75
2023/04/13 08:58:22;;;;;;;12.43;3.87;;;;;;;-150.27;100.00;61272.81;5052411;29;20448;-75
2023/04/13 09:00:55;;;;;;;11.60;3.87;;;;;;;-150.27;100.00;61272.81;5035913;29;20085;-75
2023/04/13 09:03:32;;;;;;;16.47;3.53;;;;;;;-150.27;100.00;61272.81;5057994;29;20037;-75
2023/04/13 09:06:08;;;;;;;17.17;4.60;;;;;;;-150.27;100.00;61272.81;5051965;29;20424;-75
2023/04/13 09:08:43;;;;;;;12.10;4.17;;;;;;;-150.27;100.00;61272.81;5051505;29;20029;-75
2023/04/13 09:11:15;;;;;;;14.73;4.03;;;;;;;-150.27;100.00;61272.81;5051425;29;20053;-75
2023/04/13 09:13:51;;;;;;;11.80;3.33;;;;;;;-150.27;100.00;61272.81;5051383;29;20054;-76
2023/04/13 09:16:22;;;;;;;14.47;3.93;;;;;;;-150.27;100.00;61272.81;5034251;29;20029;-75
2023/04/13 09:18:55;;;;;;;13.07;3.37;;;;;;;-150.27;100.00;61272.81;5029200;29;20496;-75
2023/04/13 09:21:43;;;;;;;16.37;3.90;;;;;;;-150.27;100.00;61272.81;5033603;29;20466;-75
2023/04/13 09:24:16;;;;;;;13.17;3.40;;;;;;;-150.27;100.00;61272.81;5037347;29;20034;-75
2023/04/13 09:26:49;;;;;;;10.47;2.93;;;;;;;-150.27;100.00;61272.81;5037434;29;20082;-75
2023/04/13 09:29:25;;;;;;;12.60;3.20;;;;;;;-150.27;100.00;61272.81;5019300;29;20093;-76
2023/04/13 09:31:56;;;;;;;11.37;3.17;;;;;;;-150.27;100.00;61272.81;5036345;29;20088;-75
2023/04/13 09:34:28;;;;;;;12.13;2.60;;;;;;;-150.27;100.00;61272.81;5035889;29;20109;-75
2023/04/13 09:37:11;;;;;;;12.73;3.13;;;;;;;-150.27;100.00;61272.81;5036991;29;20065;-75
2023/04/13 09:39:44;;;;;;;11.07;2.70;;;;;;;-150.27;100.00;61272.81;5019086;29;20040;-77
2023/04/13 09:42:18;;;;;;;10.33;2.73;;;;;;;-150.27;100.00;61272.81;5036486;29;20029;-74
2023/04/13 09:44:58;;;;;;;15.60;4.57;;;;;;;-150.27;100.00;61272.81;5020063;29;20041;-75
2023/04/13 09:47:39;;;;;;;16.00;4.00;;;;;;;-150.27;100.00;61272.81;5036387;29;20037;-75
2023/04/13 09:50:23;;;;;;;14.47;3.97;;;;;;;-150.27;100.00;61272.81;5031237;29;20040;-74
2023/04/13 09:53:03;;;;;;;12.93;3.60;;;;;;;-150.27;100.00;61272.81;5035709;29;20501;-76
2023/04/13 09:55:36;;;;;;;14.30;3.47;;;;;;;-150.27;100.00;61272.81;5042271;29;20037;-74
2023/04/13 09:58:16;;;;;;;19.33;4.60;;;;;;;-150.27;100.00;61272.81;5050722;29;20037;-74
2023/04/13 10:00:47;;;;;;;14.33;4.10;;;;;;;-150.27;100.00;61272.81;5038065;29;20032;-75
2023/04/13 10:03:21;;;;;;;13.90;3.50;;;;;;;-150.27;100.00;61272.81;5040939;29;20424;-75
2023/04/13 10:05:53;;;;;;;14.90;3.63;;;;;;;-150.27;100.00;61272.81;5035910;29;20026;-75
2023/04/13 10:08:26;;;;;;;17.30;5.00;;;;;;;-150.27;100.00;61272.81;5036760;29;20113;-75
2023/04/13 10:11:00;;;;;;;14.13;4.80;;;;;;;-150.27;100.00;61272.81;5037631;29;20090;-75
2023/04/13 10:13:50;;;;;;;14.23;4.13;;;;;;;-150.27;100.00;61272.81;5020966;29;20137;-74
2023/04/13 10:16:31;;;;;;;14.80;5.07;;;;;;;-150.27;100.00;61272.81;5055538;29;20044;-75
2023/04/13 10:19:09;;;;;;;16.87;5.20;;;;;;;-150.27;100.00;61272.81;5053456;29;20033;-75
2023/04/13 10:21:46;;;;;;;21.53;5.33;;;;;;;-150.27;100.00;61272.81;5054343;29;20089;-74
2023/04/13 10:24:18;;;;;;;15.43;4.57;;;;;;;-150.27;100.00;61272.81;5054557;29;20029;-76
2023/04/13 10:26:54;;;;;;;21.10;5.53;;;;;;;-150.27;100.00;61272.81;5054707;29;20038;-75
2023/04/13 10:29:29;;;;;;;15.23;4.33;;;;;;;-150.27;100.00;61272.81;5037960;29;20036;-75
2023/04/13 10:32:04;;;;;;;16.40;4.63;;;;;;;-150.27;100.00;61272.81;5053341;29;20025;-75
2023/04/13 10:34:38;;;;;;;14.55;4.28;;;;;;;-150.27;100.00;61272.81;5054284;29;20607;-75
2023/04/13 10:37:21;;;;;;;10.27;3.43;;;;;;;-150.27;100.00;61272.81;5052881;29;20109;-76
2023/04/13 10:40:05;;;;;;;13.87;4.23;;;;;;;-150.27;100.00;61272.81;5053011;29;20052;-74
2023/04/13 10:42:45;;;;;;;14.27;4.73;;;;;;;-150.27;100.00;61272.81;5026370;29;20060;-75
2023/04/13 10:45:23;;;;;;;16.07;4.60;;;;;;;-150.27;100.00;61272.81;5054623;29;20056;-75
2023/04/13 10:47:55;;;;;;;14.33;3.93;;;;;;;-150.27;100.00;61272.81;5053759;29;20029;-75
2023/04/13 10:50:26;;;;;;;11.30;4.57;;;;;;;-150.27;100.00;61272.81;5055215;29;20033;-75
2023/04/13 10:53:03;;;;;;;13.53;4.10;;;;;;;-150.27;100.00;61272.81;5056264;29;20439;-76
2023/04/13 10:55:35;;;;;;;13.80;3.60;;;;;;;-150.27;100.00;61272.81;5054793;29;20073;-75
2023/04/13 10:58:15;;;;;;;15.37;4.20;;;;;;;-150.27;100.00;61272.81;5052705;29;20029;-75
2023/04/13 11:00:48;;;;;;;11.87;3.93;;;;;;;-150.27;100.00;61272.81;5052385;29;20029;-75
2023/04/13 11:03:20;;;;;;;14.87;4.17;;;;;;;-150.27;100.00;61272.81;5053790;29;20045;-75
2023/04/13 11:05:57;;;;;;;12.37;3.37;;;;;;;-150.27;100.00;61272.81;5054132;29;20030;-76
2023/04/13 11:08:31;;;;;;;13.37;4.03;;;;;;;-150.27;100.00;61272.81;5053123;29;20034;-76
2023/04/13 11:11:02;;;;;;;9.73;3.30;;;;;;;-150.27;100.00;61272.81;5052722;29;20079;-75
2023/04/13 11:13:34;;;;;;;12.23;3.10;;;;;;;-150.27;100.00;61272.81;5050545;29;20133;-77
2023/04/13 11:16:06;;;;;;;9.77;2.50;;;;;;;-150.27;100.00;61272.81;5051179;29;20030;-75
2023/04/13 11:18:37;;;;;;;14.23;3.03;;;;;;;-150.27;100.00;61272.81;5051789;29;20124;-75
2023/04/13 11:21:15;;;;;;;14.73;4.87;;;;;;;-150.27;100.00;61272.81;5053697;29;20065;-76
2023/04/13 11:23:52;;;;;;;12.60;4.23;;;;;;;-150.27;100.00;61272.81;5052033;29;20053;-75
2023/04/13 11:26:34;;;;;;;13.47;5.03;;;;;;;-150.27;100.00;61272.81;5050913;29;20090;-76
2023/04/13 11:29:15;;;;;;;17.33;3.80;;;;;;;-150.27;100.00;61272.81;5053454;29;20033;-76
2023/04/13 11:31:47;;;;;;;10.77;2.53;;;;;;;-150.27;100.00;61272.81;5035787;29;20117;-76
2023/04/13 11:34:27;;;;;;;13.20;3.43;;;;;;;-150.27;100.00;61272.81;5047924;29;20705;-75
2023/04/13 11:37:00;;;;;;;9.30;2.87;;;;;;;-150.27;100.00;61272.81;5055188;29;20485;-76
2023/04/13 11:39:33;;;;;;;15.33;3.40;;;;;;;-150.27;100.00;61272.81;5038062;29;20029;-76
2023/04/13 11:42:08;;;;;;;12.53;3.07;;;;;;;-150.27;100.00;61272.81;5055424;29;20302;-75
2023/04/13 11:44:44;;;;;;;16.67;3.38;;;;;;;-150.27;100.00;61272.81;5054678;29;20147;-75
2023/04/13 11:47:16;;;;;;;12.33;3.57;;;;;;;-150.27;100.00;61272.81;5055440;29;20448;-76
2023/04/13 11:49:49;;;;;;;10.40;3.57;;;;;;;-150.27;100.00;61272.81;5054362;29;20124;-75
2023/04/13 11:52:20;;;;;;;11.90;3.13;;;;;;;-150.27;100.00;61272.81;5055148;29;20112;-75
2023/04/13 11:54:53;;;;;;;14.10;3.40;;;;;;;-150.27;100.00;61272.81;5054293;29;20503;-75
2023/04/13 11:57:24;;;;;;;12.40;2.93;;;;;;;-150.27;100.00;61272.81;5052794;29;20033;-75
2023/04/13 11:59:56;;;;;;;7.83;3.07;;;;;;;-150.27;100.00;61272.81;5052593;29;20454;-77
2023/04/13 12:02:29;;;;;;;11.00;3.40;;;;;;;-150.27;100.00;61272.81;5049589;29;20502;-75
2023/04/13 12:05:01;;;;;;;12.52;3.58;;;;;;;-150.27;100.00;61272.81;5054893;29;20029;-75
2023/04/13 12:07:39;;;;;;;10.00;3.57;;;;;;;-150.27;100.00;61272.81;5054973;29;20060;-76
2023/04/13 12:10:19;;;;;;;12.30;3.20;;;;;;;-150.27;100.00;61272.81;5053925;29;20037;-76